Time;durP1;ratioP1;P1;durP2;ratioP2;P2;SDS_P1;SDS_P2;PMS_P1;PMS_P2;Temp;Humidity;BMP_temperature;BMP_pressure;BME280_temperature;BME280_humidity;BME280_pressure;Samples;Min_cycle;Max_cycle;Signal;HPM_P1;HPM_P2
2021/07/19 00:00:11;;;;;;;3.95;2.08;;;;;;;22.17;39.92;101785.16;3562709;40;20057;-76
2021/07/19 00:02:40;;;;;;;4.05;1.88;;;;;;;22.12;39.39;101784.88;3567524;40;20041;-76
2021/07/19 00:05:11;;;;;;;3.03;1.92;;;;;;;22.13;39.57;101788.50;3567650;40;20081;-76
2021/07/19 00:07:39;;;;;;;3.25;1.85;;;;;;;22.09;39.95;101785.22;3561762;40;20125;-76
2021/07/19 00:10:11;;;;;;;5.97;2.25;;;;;;;22.11;40.05;101785.91;3567769;40;20054;-76
2021/07/19 00:12:39;;;;;;;3.95;2.20;;;;;;;22.06;39.76;101784.75;3544975;40;20418;-77
2021/07/19 00:15:11;;;;;;;3.58;2.08;;;;;;;22.08;40.08;101782.63;3567631;40;20093;-76
2021/07/19 00:17:39;;;;;;;4.35;2.20;;;;;;;22.03;39.78;101785.97;3566632;40;20081;-76
2021/07/19 00:20:09;;;;;;;4.95;2.22;;;;;;;22.05;39.85;101783.00;3566970;40;20066;-76
2021/07/19 00:22:37;;;;;;;4.35;2.30;;;;;;;22.01;39.26;101785.28;3566898;40;20084;-77
2021/07/19 00:25:10;;;;;;;4.10;2.13;;;;;;;22.00;39.34;101786.34;3568747;40;20041;-77
2021/07/19 00:27:39;;;;;;;4.43;2.53;;;;;;;21.99;39.40;101780.94;3567358;40;20041;-77
2021/07/19 00:30:10;;;;;;;4.47;2.35;;;;;;;21.96;39.55;101772.97;3567773;40;20162;-77
2021/07/19 00:32:39;;;;;;;4.10;2.10;;;;;;;21.91;39.51;101775.44;3567629;40;20048;-76
2021/07/19 00:35:09;;;;;;;4.72;2.28;;;;;;;21.90;39.98;101770.94;3568474;40;20061;-76
2021/07/19 00:37:39;;;;;;;5.68;3.03;;;;;;;21.86;39.39;101775.13;3565001;40;20390;-77
2021/07/19 00:40:10;;;;;;;3.92;2.40;;;;;;;21.85;40.04;101773.38;3558364;40;20073;-77
2021/07/19 00:42:43;;;;;;;3.83;1.95;;;;;;;21.80;39.72;101769.25;3558694;40;20131;-77
2021/07/19 00:45:15;;;;;;;4.07;2.13;;;;;;;21.78;39.62;101770.47;3556461;40;20034;-77
2021/07/19 00:47:44;;;;;;;3.45;2.10;;;;;;;21.75;40.08;101756.91;3564661;40;20048;-77
2021/07/19 00:50:13;;;;;;;3.67;2.03;;;;;;;21.72;40.14;101763.75;3571309;40;20488;-77
2021/07/19 00:52:44;;;;;;;4.05;2.17;;;;;;;21.69;39.93;101766.88;3556787;40;20390;-76
2021/07/19 00:55:14;;;;;;;4.70;2.30;;;;;;;21.69;40.03;101768.78;3559371;40;20149;-77
2021/07/19 00:57:48;;;;;;;3.47;2.13;;;;;;;21.68;40.55;101767.94;3555736;40;20045;-77
2021/07/19 01:00:17;;;;;;;4.75;2.50;;;;;;;21.65;40.24;101773.00;3564524;40;20057;-77
2021/07/19 01:02:50;;;;;;;4.80;2.60;;;;;;;21.64;40.50;101768.50;3558465;40;20081;-77
2021/07/19 01:05:19;;;;;;;3.55;2.00;;;;;;;21.59;40.04;101762.59;3559124;40;20053;-77
2021/07/19 01:07:49;;;;;;;4.35;2.47;;;;;;;21.59;40.52;101765.38;3558488;40;20065;-76
2021/07/19 01:10:19;;;;;;;4.20;2.13;;;;;;;21.57;40.64;101759.16;3558542;40;20036;-76
2021/07/19 01:12:53;;;;;;;3.77;2.00;;;;;;;21.54;40.40;101759.47;3558521;40;20073;-77
2021/07/19 01:15:25;;;;;;;4.00;2.33;;;;;;;21.53;40.61;101760.50;3553271;40;20029;-77
2021/07/19 01:17:55;;;;;;;5.20;2.47;;;;;;;21.50;40.75;101752.50;3554755;40;20039;-77
2021/07/19 01:20:30;;;;;;;4.07;2.13;;;;;;;21.50;40.55;101758.06;3563987;40;20030;-76
2021/07/19 01:23:25;;;;;;;4.32;2.40;;;;;;;21.46;40.47;101757.59;3554111;40;20105;-77
2021/07/19 01:26:15;;;;;;;3.95;2.38;;;;;;;21.40;40.04;101758.34;3566186;40;20049;-77
2021/07/19 01:28:48;;;;;;;4.32;2.17;;;;;;;21.37;40.69;101758.69;3557718;40;20045;-77
2021/07/19 01:31:20;;;;;;;3.67;2.30;;;;;;;21.31;40.28;101749.16;3560443;40;20152;-77
2021/07/19 01:33:52;;;;;;;4.18;2.40;;;;;;;21.29;40.27;101756.81;3559442;40;20037;-77
2021/07/19 01:36:23;;;;;;;4.97;2.50;;;;;;;21.21;40.02;101747.63;3557880;40;20386;-77
2021/07/19 01:39:12;;;;;;;3.50;2.15;;;;;;;21.15;40.33;101738.09;3552709;40;20042;-77
2021/07/19 01:41:42;;;;;;;3.88;2.40;;;;;;;21.13;40.17;101734.63;3567505;40;20081;-77
2021/07/19 01:44:14;;;;;;;3.35;2.20;;;;;;;21.09;40.28;101744.38;3559113;40;20053;-77
2021/07/19 01:46:44;;;;;;;4.72;2.42;;;;;;;21.03;40.18;101739.53;3559600;40;20279;-77
2021/07/19 01:49:14;;;;;;;4.28;2.17;;;;;;;20.99;40.13;101733.47;3565096;40;20033;-77
2021/07/19 01:51:43;;;;;;;3.58;2.08;;;;;;;20.96;40.49;101733.81;3559063;40;20050;-78
2021/07/19 01:54:12;;;;;;;4.60;2.40;;;;;;;20.95;40.96;101732.09;3559526;40;20054;-77
2021/07/19 01:56:43;;;;;;;3.85;2.10;;;;;;;20.94;40.66;101735.03;3558900;40;20050;-78
2021/07/19 01:59:16;;;;;;;4.57;2.15;;;;;;;20.95;41.09;101731.22;3559533;40;20040;-78
2021/07/19 02:01:58;;;;;;;4.78;2.20;;;;;;;20.91;41.19;101733.47;3558465;40;20050;-77
2021/07/19 02:04:30;;;;;;;3.55;2.20;;;;;;;20.90;41.42;101733.69;3568385;40;20314;-77
2021/07/19 02:06:59;;;;;;;3.63;2.20;;;;;;;20.92;41.30;101734.34;3558200;40;20053;-77
2021/07/19 02:09:29;;;;;;;4.45;2.33;;;;;;;20.91;41.41;101730.69;3553907;40;20600;-77
2021/07/19 02:12:17;;;;;;;4.63;2.65;;;;;;;20.89;40.92;101738.38;3537442;40;20078;-77
2021/07/19 02:14:50;;;;;;;3.83;2.15;;;;;;;20.91;41.30;101744.59;3566103;40;20045;-78
2021/07/19 02:17:23;;;;;;;4.68;2.15;;;;;;;20.89;41.35;101754.19;3566687;40;20048;-77
2021/07/19 02:19:53;;;;;;;3.90;2.40;;;;;;;20.88;41.18;101749.63;3559122;40;20066;-77
2021/07/19 02:22:24;;;;;;;5.03;2.47;;;;;;;20.86;41.81;101757.28;3569282;40;20138;-77
2021/07/19 02:25:06;;;;;;;4.00;2.00;;;;;;;20.85;41.58;101759.19;3554037;40;20049;-77
2021/07/19 02:27:46;;;;;;;5.28;2.30;;;;;;;20.85;41.81;101761.09;3559826;40;20042;-77
2021/07/19 02:30:18;;;;;;;3.88;2.35;;;;;;;20.85;41.60;101767.53;3569957;40;20034;-77
2021/07/19 02:32:48;;;;;;;4.33;2.17;;;;;;;20.81;41.26;101766.19;3560083;40;20041;-77
2021/07/19 02:35:18;;;;;;;4.47;2.60;;;;;;;20.79;41.82;101764.59;3560667;40;20045;-77
2021/07/19 02:37:51;;;;;;;4.25;2.35;;;;;;;20.81;41.63;101763.41;3559569;40;20293;-77
2021/07/19 02:40:27;;;;;;;5.25;2.60;;;;;;;20.79;41.00;101764.59;3560904;40;20286;-77
2021/07/19 02:43:01;;;;;;;3.80;2.78;;;;;;;20.74;41.11;101754.03;3559823;40;20046;-77
2021/07/19 02:45:35;;;;;;;;;;;;;;;20.46;41.80;101753.56;3560322;40;20576;-77
2021/07/19 02:48:05;;;;;;;6.18;2.70;;;;;;;20.65;41.42;101750.41;3554083;40;19941;-77
2021/07/19 02:50:39;;;;;;;3.97;2.42;;;;;;;20.66;40.98;101752.16;3563887;40;20314;-77
2021/07/19 02:53:10;;;;;;;4.18;2.25;;;;;;;20.64;41.31;101751.44;3560661;40;20053;-77
2021/07/19 02:55:39;;;;;;;4.45;2.60;;;;;;;20.62;41.18;101749.88;3559677;40;20072;-77
2021/07/19 02:58:12;;;;;;;5.07;2.22;;;;;;;20.59;41.51;101737.19;3560026;40;20061;-77
2021/07/19 03:00:43;;;;;;;3.92;2.35;;;;;;;20.57;41.65;101738.44;3568670;40;20346;-81
2021/07/19 03:03:15;;;;;;;3.63;2.38;;;;;;;20.56;41.43;101734.78;3559812;40;20045;-78
2021/07/19 03:05:49;;;;;;;4.20;2.75;;;;;;;20.55;41.14;101735.81;3559140;40;20135;-77
2021/07/19 03:08:22;;;;;;;4.82;2.70;;;;;;;20.51;40.78;101742.75;3559731;40;20056;-77
2021/07/19 03:11:07;;;;;;;5.50;2.63;;;;;;;20.47;40.89;101735.84;3543500;40;20050;-77
2021/07/19 03:13:38;;;;;;;4.47;2.50;;;;;;;20.45;40.97;101737.06;3566069;40;20057;-77
2021/07/19 03:16:12;;;;;;;5.22;2.60;;;;;;;20.45;41.97;101734.28;3559353;40;20385;-77
2021/07/19 03:18:46;;;;;;;6.40;2.63;;;;;;;20.41;41.39;101728.22;3557797;40;20038;-77
2021/07/19 03:21:19;;;;;;;4.05;2.28;;;;;;;20.39;41.51;101737.75;3559110;40;20053;-77
2021/07/19 03:23:57;;;;;;;5.57;2.60;;;;;;;20.35;41.49;101742.78;3559974;40;20041;-77
2021/07/19 03:26:26;;;;;;;4.55;2.58;;;;;;;20.33;41.50;101742.13;3559207;40;20053;-77
2021/07/19 03:28:57;;;;;;;4.63;2.97;;;;;;;20.33;41.82;101741.25;3559592;40;20041;-77
2021/07/19 03:31:29;;;;;;;4.38;2.47;;;;;;;20.32;42.38;101745.94;3559048;40;20033;-77
2021/07/19 03:33:58;;;;;;;4.15;2.45;;;;;;;20.26;41.67;101749.38;3568801;40;20456;-77
2021/07/19 03:36:30;;;;;;;3.70;2.40;;;;;;;20.25;41.42;101748.53;3567762;40;20049;-77
2021/07/19 03:38:58;;;;;;;5.20;2.57;;;;;;;20.20;41.61;101745.38;3557781;40;20034;-77
2021/07/19 03:41:38;;;;;;;4.72;2.40;;;;;;;20.18;41.26;101760.47;3559544;40;20339;-77
2021/07/19 03:44:10;;;;;;;3.15;2.30;;;;;;;20.18;41.61;101752.13;3559764;40;20080;-77
2021/07/19 03:46:42;;;;;;;5.07;2.67;;;;;;;20.15;41.54;101753.38;3569018;40;20126;-77
2021/07/19 03:49:13;;;;;;;4.45;2.65;;;;;;;20.10;41.96;101758.56;3560078;40;20066;-77
2021/07/19 03:51:43;;;;;;;4.13;2.70;;;;;;;20.09;41.57;101762.38;3557153;40;20041;-77
2021/07/19 03:54:12;;;;;;;3.85;2.58;;;;;;;20.05;41.46;101755.44;3559706;40;20049;-77
2021/07/19 03:56:41;;;;;;;4.10;2.72;;;;;;;20.03;41.68;101765.00;3559056;40;20079;-78
2021/07/19 03:59:12;;;;;;;4.53;2.70;;;;;;;19.98;41.49;101759.09;3559741;40;20041;-77
2021/07/19 04:01:43;;;;;;;3.50;2.50;;;;;;;19.95;42.02;101763.06;3554186;40;20082;-77
2021/07/19 04:04:17;;;;;;;3.70;2.40;;;;;;;19.88;41.52;101756.47;3559701;40;20033;-77
2021/07/19 04:06:59;;;;;;;4.68;2.63;;;;;;;19.85;42.28;101756.81;3558934;40;20109;-77
2021/07/19 04:09:38;;;;;;;5.35;2.58;;;;;;;19.82;42.29;101760.81;3561955;40;20330;-77
2021/07/19 04:12:14;;;;;;;4.47;2.35;;;;;;;19.79;41.97;101755.59;3570400;40;20330;-77
2021/07/19 04:14:45;;;;;;;4.85;2.50;;;;;;;19.78;41.86;101761.31;3561164;40;20049;-78
2021/07/19 04:17:15;;;;;;;4.60;2.47;;;;;;;19.78;42.25;101762.19;3554957;40;20038;-77
2021/07/19 04:19:45;;;;;;;4.90;2.38;;;;;;;19.76;42.71;101764.25;3567904;40;20404;-78
2021/07/19 04:22:15;;;;;;;4.95;2.25;;;;;;;19.75;42.18;101770.88;3559222;40;20033;-77
2021/07/19 04:24:53;;;;;;;6.43;2.60;;;;;;;19.75;42.65;101773.66;3559907;40;20089;-77
2021/07/19 04:27:22;;;;;;;5.55;2.72;;;;;;;19.76;42.67;101771.75;3568462;40;20038;-77
2021/07/19 04:29:52;;;;;;;3.80;2.65;;;;;;;19.76;42.44;101772.59;3559277;40;20056;-77
2021/07/19 04:32:24;;;;;;;5.28;2.75;;;;;;;19.77;42.43;101773.47;3559063;40;20042;-77
2021/07/19 04:34:54;;;;;;;5.13;2.70;;;;;;;19.76;42.44;101772.59;3566022;40;20477;-77
2021/07/19 04:37:23;;;;;;;4.97;2.78;;;;;;;19.77;42.56;101773.47;3565929;40;20045;-77
2021/07/19 04:39:52;;;;;;;5.10;2.63;;;;;;;19.77;42.19;101774.31;3559469;40;20032;-77
2021/07/19 04:42:26;;;;;;;5.22;2.85;;;;;;;19.76;42.11;101775.38;3558990;40;20045;-77
2021/07/19 04:44:54;;;;;;;6.25;3.10;;;;;;;19.75;42.44;101773.66;3567969;40;20041;-77
2021/07/19 04:47:22;;;;;;;4.95;3.05;;;;;;;19.75;42.36;101772.78;3568142;40;20049;-77
2021/07/19 04:49:52;;;;;;;4.75;2.95;;;;;;;19.73;42.44;101775.72;3558260;40;20085;-77
2021/07/19 04:52:20;;;;;;;5.63;3.15;;;;;;;19.70;42.45;101781.59;3568769;40;20413;-78
2021/07/19 04:54:50;;;;;;;5.18;3.25;;;;;;;19.67;42.18;101775.53;3569169;40;20487;-77
2021/07/19 04:57:19;;;;;;;4.45;2.70;;;;;;;19.64;42.30;101773.97;3565173;40;20038;-77
2021/07/19 04:59:50;;;;;;;7.85;3.17;;;;;;;19.61;42.09;101774.28;3562989;40;20098;-78
2021/07/19 05:02:20;;;;;;;5.75;2.95;;;;;;;19.59;42.11;101789.41;3565604;40;20071;-77
2021/07/19 05:04:51;;;;;;;6.82;3.60;;;;;;;19.56;41.91;101798.94;3569157;40;20069;-77
2021/07/19 05:07:23;;;;;;;5.25;3.30;;;;;;;19.54;42.69;101790.75;3563611;40;20042;-77
2021/07/19 05:09:53;;;;;;;5.18;3.42;;;;;;;19.49;42.07;101800.59;3568840;40;20093;-77
2021/07/19 05:12:23;;;;;;;6.43;3.53;;;;;;;19.49;42.64;101803.38;3554100;40;20124;-77
2021/07/19 05:14:51;;;;;;;5.68;3.22;;;;;;;19.46;42.87;101799.03;3568512;40;20627;-77
2021/07/19 05:17:21;;;;;;;5.35;3.53;;;;;;;19.45;42.70;101805.59;3567954;40;20046;-80
2021/07/19 05:19:50;;;;;;;5.68;3.17;;;;;;;19.44;42.95;101803.88;3571952;40;20065;-78
2021/07/19 05:22:18;;;;;;;5.45;3.50;;;;;;;19.44;42.53;101803.88;3567709;40;20041;-78
2021/07/19 05:24:47;;;;;;;6.82;4.25;;;;;;;19.46;42.82;101809.25;3568829;40;20045;-77
2021/07/19 05:27:16;;;;;;;5.25;3.08;;;;;;;19.45;42.94;101810.28;3568164;40;20142;-78
2021/07/19 05:29:45;;;;;;;6.40;3.40;;;;;;;19.43;42.45;101801.28;3568757;40;20141;-77
2021/07/19 05:32:13;;;;;;;5.75;3.70;;;;;;;19.42;42.88;101805.97;3568389;40;20582;-77
2021/07/19 05:34:41;;;;;;;5.30;3.65;;;;;;;19.42;42.87;101814.28;3568471;40;20050;-78
2021/07/19 05:37:09;;;;;;;5.63;3.35;;;;;;;19.41;42.41;101814.44;3568047;40;20161;-77
2021/07/19 05:39:37;;;;;;;7.07;3.80;;;;;;;19.38;42.66;101807.31;3568921;40;20041;-78
2021/07/19 05:42:06;;;;;;;5.75;3.50;;;;;;;19.38;42.31;101821.19;3543598;40;20376;-77
2021/07/19 05:44:34;;;;;;;6.13;3.80;;;;;;;19.35;42.75;101815.97;3557721;40;20057;-77
2021/07/19 05:47:04;;;;;;;6.18;3.80;;;;;;;19.37;42.87;101819.44;3538822;40;20030;-77
2021/07/19 05:49:33;;;;;;;5.75;3.70;;;;;;;19.36;42.78;101814.06;3564189;40;20040;-77
2021/07/19 05:52:01;;;;;;;5.55;3.72;;;;;;;19.37;42.51;101813.03;3567893;40;20041;-77
2021/07/19 05:54:29;;;;;;;6.65;3.53;;;;;;;19.37;42.94;101822.22;3568285;40;20057;-78
2021/07/19 05:56:57;;;;;;;6.70;4.07;;;;;;;19.39;43.17;101822.06;3567382;40;20053;-77
2021/07/19 05:59:26;;;;;;;6.75;4.05;;;;;;;19.42;42.84;101828.16;3568543;40;20043;-77
2021/07/19 06:01:54;;;;;;;5.60;3.15;;;;;;;19.43;43.02;101829.03;3567570;40;20085;-77
2021/07/19 06:04:23;;;;;;;6.28;3.72;;;;;;;19.45;43.02;101819.47;3559369;40;20040;-77
2021/07/19 06:06:51;;;;;;;6.53;3.75;;;;;;;19.47;42.87;101817.41;3564299;40;20386;-77
2021/07/19 06:09:19;;;;;;;7.15;3.83;;;;;;;19.50;43.06;101821.78;3566907;40;20034;-76
2021/07/19 06:11:47;;;;;;;6.95;3.80;;;;;;;19.53;43.18;101827.00;3551268;40;20085;-78
2021/07/19 06:14:15;;;;;;;6.22;3.67;;;;;;;19.55;43.37;101816.63;3554096;40;20653;-76
2021/07/19 06:16:44;;;;;;;7.35;3.55;;;;;;;19.60;43.36;101827.19;3557521;40;20046;-77
2021/07/19 06:19:12;;;;;;;5.97;3.70;;;;;;;19.60;43.37;101818.88;3568447;40;20089;-77
2021/07/19 06:21:40;;;;;;;6.15;3.42;;;;;;;19.62;43.02;101812.13;3555634;40;20064;-77
2021/07/19 06:24:08;;;;;;;6.35;3.85;;;;;;;19.64;43.31;101823.94;3567685;40;20049;-77
2021/07/19 06:26:38;;;;;;;6.78;4.00;;;;;;;19.65;43.32;101822.91;3562372;40;20487;-75
2021/07/19 06:29:07;;;;;;;6.60;3.60;;;;;;;19.67;43.38;101828.28;3563968;40;20057;-74
2021/07/19 06:31:34;;;;;;;7.10;4.13;;;;;;;19.70;42.96;101822.38;3554048;40;20264;-75
2021/07/19 06:34:04;;;;;;;5.60;3.83;;;;;;;19.74;42.87;101818.25;3553305;40;20033;-73
2021/07/19 06:36:32;;;;;;;7.45;3.92;;;;;;;19.73;42.95;101822.06;3560401;40;20049;-72
2021/07/19 06:39:00;;;;;;;7.43;3.78;;;;;;;19.73;43.06;101822.06;3560065;40;20115;-75
2021/07/19 06:41:28;;;;;;;7.25;4.07;;;;;;;19.73;43.37;101816.50;3561248;40;20053;-73
2021/07/19 06:43:56;;;;;;;7.05;3.83;;;;;;;19.74;43.27;101826.56;3562829;40;20155;-76
2021/07/19 06:46:24;;;;;;;5.78;3.55;;;;;;;19.75;43.41;101829.19;3562588;40;20092;-77
2021/07/19 06:48:52;;;;;;;6.07;3.95;;;;;;;19.77;42.72;101832.63;3564706;40;20051;-77
2021/07/19 06:51:21;;;;;;;6.05;3.80;;;;;;;19.79;43.27;101830.56;3562021;40;20466;-75
2021/07/19 06:53:49;;;;;;;6.30;3.67;;;;;;;19.80;43.45;101823.09;3561558;40;20057;-74
2021/07/19 06:56:18;;;;;;;8.07;4.20;;;;;;;19.84;42.74;101830.91;3543955;40;20053;-74
2021/07/19 06:58:47;;;;;;;6.68;3.80;;;;;;;19.86;43.35;101833.53;3557952;40;20135;-75
2021/07/19 07:01:15;;;;;;;5.78;3.65;;;;;;;19.86;42.88;101839.94;3548319;40;20381;-75
2021/07/19 07:03:43;;;;;;;5.63;3.90;;;;;;;19.87;42.99;101825.03;3563983;40;20061;-75
2021/07/19 07:06:28;;;;;;;5.80;3.53;;;;;;;19.89;42.86;101831.28;3564699;40;20312;-76
2021/07/19 07:08:58;;;;;;;5.68;3.85;;;;;;;19.92;43.37;101830.09;3566555;40;20393;-74
2021/07/19 07:11:27;;;;;;;6.25;3.92;;;;;;;19.96;43.43;101828.69;3541148;40;20066;-73
2021/07/19 07:13:55;;;;;;;7.18;3.83;;;;;;;20.00;43.22;101823.69;3564550;40;20044;-76
2021/07/19 07:16:25;;;;;;;5.63;3.80;;;;;;;20.05;43.24;101819.34;3553176;40;20041;-73
2021/07/19 07:18:53;;;;;;;5.97;3.70;;;;;;;20.08;43.55;101819.00;3569874;40;20093;-75
2021/07/19 07:21:21;;;;;;;6.70;3.80;;;;;;;20.15;43.01;101827.50;3539761;40;20042;-75
2021/07/19 07:23:51;;;;;;;7.13;4.28;;;;;;;20.21;43.05;101827.72;3558670;40;20058;-75
2021/07/19 07:26:19;;;;;;;6.35;4.28;;;;;;;20.23;42.60;101825.66;3566038;40;20045;-75
2021/07/19 07:28:47;;;;;;;7.00;4.40;;;;;;;20.27;42.56;101837.25;3566241;40;20045;-75
2021/07/19 07:31:15;;;;;;;9.18;5.45;;;;;;;20.27;42.09;101828.94;3566276;40;20123;-76
2021/07/19 07:33:43;;;;;;;8.90;4.63;;;;;;;20.27;42.11;101828.94;3566406;40;20052;-76
2021/07/19 07:36:13;;;;;;;8.98;5.00;;;;;;;20.27;42.08;101823.38;3558572;40;20053;-77
2021/07/19 07:38:40;;;;;;;7.97;4.50;;;;;;;20.26;42.15;101830.84;3566693;40;20195;-77
2021/07/19 07:41:10;;;;;;;8.15;5.18;;;;;;;20.27;41.96;101829.81;3567493;40;20135;-76
2021/07/19 07:43:38;;;;;;;7.72;5.35;;;;;;;20.22;41.41;101825.81;3566171;40;20069;-76
2021/07/19 07:46:06;;;;;;;9.65;6.07;;;;;;;20.20;41.02;101837.06;3541186;40;20101;-76
2021/07/19 07:48:35;;;;;;;7.13;5.40;;;;;;;20.18;41.07;101832.72;3553457;40;20049;-76
2021/07/19 07:51:03;;;;;;;8.48;5.60;;;;;;;20.16;41.03;101834.81;3553532;40;20166;-76
2021/07/19 07:53:32;;;;;;;8.30;4.93;;;;;;;20.14;41.48;101839.66;3562842;40;20105;-76
2021/07/19 07:56:00;;;;;;;7.43;5.03;;;;;;;20.13;41.35;101837.91;3567573;40;20045;-76
2021/07/19 07:58:30;;;;;;;7.70;4.93;;;;;;;20.14;41.95;101840.53;3567928;40;20049;-75
2021/07/19 08:00:58;;;;;;;7.13;4.80;;;;;;;20.14;41.82;101839.66;3567278;40;20061;-75
2021/07/19 08:03:28;;;;;;;7.45;4.95;;;;;;;20.17;42.10;101847.66;3568265;40;20057;-76
2021/07/19 08:05:56;;;;;;;7.93;4.80;;;;;;;20.19;41.67;101840.00;3556836;40;20037;-76
2021/07/19 08:08:24;;;;;;;7.25;4.97;;;;;;;20.22;42.17;101836.94;3565916;40;20032;-77
2021/07/19 08:10:52;;;;;;;8.45;5.20;;;;;;;20.25;41.79;101837.44;3562695;40;20042;-77
2021/07/19 08:13:20;;;;;;;9.68;5.57;;;;;;;20.27;40.91;101832.59;3565567;40;20090;-73
2021/07/19 08:15:50;;;;;;;9.23;6.20;;;;;;;20.29;40.25;101832.41;3554237;40;20042;-74
2021/07/19 08:18:18;;;;;;;8.40;5.53;;;;;;;20.24;40.46;101830.16;3564250;40;20147;-74
2021/07/19 08:20:47;;;;;;;9.32;5.75;;;;;;;20.23;40.45;101831.22;3562154;40;20064;-74
2021/07/19 08:23:15;;;;;;;9.75;5.88;;;;;;;20.20;40.46;101831.50;3566530;40;20437;-78
2021/07/19 08:25:44;;;;;;;8.75;5.15;;;;;;;20.16;40.31;101837.59;3565401;40;20590;-76
2021/07/19 08:28:13;;;;;;;7.88;5.35;;;;;;;20.15;40.26;101835.84;3562357;40;20057;-73
2021/07/19 08:30:41;;;;;;;8.70;5.63;;;;;;;20.12;40.84;101838.97;3560388;40;20072;-74
2021/07/19 08:33:10;;;;;;;8.88;5.50;;;;;;;20.12;39.97;101834.28;3564351;40;20053;-76
2021/07/19 08:35:39;;;;;;;8.55;5.18;;;;;;;20.10;40.75;101829.91;3562452;40;20053;-78
2021/07/19 08:38:07;;;;;;;8.80;6.38;;;;;;;20.08;40.00;101838.44;3570877;40;20033;-80
2021/07/19 08:40:37;;;;;;;9.40;6.28;;;;;;;20.08;39.97;101832.03;3570517;40;20112;-81
2021/07/19 08:43:06;;;;;;;8.68;5.50;;;;;;;20.07;40.06;101833.94;3570607;40;20025;-80
2021/07/19 08:45:34;;;;;;;8.10;5.43;;;;;;;20.04;40.05;101828.72;3569110;40;20032;-80
2021/07/19 08:48:03;;;;;;;9.13;5.63;;;;;;;20.06;40.59;101831.31;3569577;40;20041;-79
2021/07/19 08:50:33;;;;;;;8.13;5.75;;;;;;;20.07;40.01;101830.28;3567239;40;20390;-78
2021/07/19 08:53:03;;;;;;;8.73;5.95;;;;;;;20.05;40.37;101832.34;3569002;40;20034;-78
2021/07/19 08:55:33;;;;;;;8.63;5.43;;;;;;;20.03;39.97;101826.09;3567592;40;20030;-79
2021/07/19 08:58:02;;;;;;;8.02;5.35;;;;;;;20.05;40.15;101829.56;3567591;40;20402;-79
2021/07/19 09:00:30;;;;;;;9.32;5.35;;;;;;;20.03;40.38;101828.88;3552704;40;20052;-78
2021/07/19 09:02:58;;;;;;;9.30;5.50;;;;;;;20.05;40.44;101836.00;3565838;40;20045;-78
2021/07/19 09:05:27;;;;;;;7.55;5.38;;;;;;;20.08;40.70;101832.91;3568858;40;20410;-78
2021/07/19 09:07:57;;;;;;;8.38;5.82;;;;;;;20.11;40.79;101834.44;3567398;40;20041;-78
2021/07/19 09:10:27;;;;;;;9.35;5.90;;;;;;;20.13;40.50;101829.59;3573660;40;20065;-78
2021/07/19 09:12:58;;;;;;;8.43;5.90;;;;;;;20.13;40.38;101822.13;3569270;40;20041;-81
2021/07/19 09:15:36;;;;;;;8.32;6.10;;;;;;;20.19;39.99;101838.09;3560018;40;20402;-78
2021/07/19 09:18:06;;;;;;;9.70;6.43;;;;;;;20.18;40.42;101832.72;3568154;40;20041;-77
2021/07/19 09:20:35;;;;;;;9.93;6.32;;;;;;;20.21;40.07;101832.41;3568159;40;20053;-78
2021/07/19 09:23:05;;;;;;;9.80;6.97;;;;;;;20.22;39.83;101831.38;3568547;40;20069;-78
2021/07/19 09:25:34;;;;;;;11.70;6.57;;;;;;;20.20;40.02;101827.84;3568247;40;20055;-78
2021/07/19 09:28:05;;;;;;;9.95;6.65;;;;;;;20.19;40.13;101832.53;3568410;40;20060;-78
2021/07/19 09:30:36;;;;;;;10.10;6.78;;;;;;;20.18;39.94;101830.81;3567420;40;20073;-78
2021/07/19 09:33:06;;;;;;;10.45;6.85;;;;;;;20.13;39.46;101830.47;3559048;40;20053;-78
2021/07/19 09:35:36;;;;;;;10.77;7.15;;;;;;;20.10;39.85;101830.78;3568515;40;20033;-80
2021/07/19 09:38:07;;;;;;;9.10;6.10;;;;;;;20.09;39.87;101834.59;3568474;40;20548;-79
2021/07/19 09:40:37;;;;;;;9.43;6.27;;;;;;;20.02;39.60;101827.13;3568854;40;20264;-79
2021/07/19 09:43:16;;;;;;;10.88;6.20;;;;;;;20.01;39.97;101820.69;3549640;40;20078;-79
2021/07/19 09:45:46;;;;;;;8.95;5.80;;;;;;;19.98;40.21;101820.19;3550399;40;20053;-79
2021/07/19 09:48:14;;;;;;;8.13;5.95;;;;;;;19.95;40.34;101807.50;3565450;40;20045;-78
2021/07/19 09:50:50;;;;;;;8.20;5.53;;;;;;;19.98;39.99;101815.50;3570930;40;20036;-78
2021/07/19 09:53:29;;;;;;;7.70;5.90;;;;;;;20.03;40.19;101820.53;3568496;40;20030;-77
2021/07/19 09:56:07;;;;;;;10.07;6.15;;;;;;;20.05;40.63;101815.69;3567590;40;20467;-78
2021/07/19 09:58:35;;;;;;;10.68;5.97;;;;;;;20.04;40.69;101823.16;3568270;40;20139;-82
2021/07/19 10:01:03;;;;;;;10.90;6.45;;;;;;;20.07;39.96;101822.81;3567497;40;20068;-79
2021/07/19 10:03:33;;;;;;;8.63;5.65;;;;;;;20.09;40.05;101819.88;3568250;40;20053;-79
2021/07/19 10:06:05;;;;;;;10.30;6.30;;;;;;;20.13;40.45;101818.47;3567177;40;20119;-78
2021/07/19 10:08:35;;;;;;;10.90;6.70;;;;;;;20.14;40.56;101817.44;3568381;40;20193;-77
2021/07/19 10:11:15;;;;;;;10.80;6.50;;;;;;;20.18;39.58;101816.03;3567856;40;20061;-78
2021/07/19 10:13:47;;;;;;;8.63;6.00;;;;;;;20.20;40.16;101816.75;3569017;40;20063;-79
2021/07/19 10:16:16;;;;;;;;;;;;;;;19.90;41.13;101821.06;3568125;40;20041;-79
2021/07/19 10:18:47;;;;;;;7.60;5.13;;;;;;;20.19;39.96;101815.88;3568233;40;20019;-79
2021/07/19 10:21:15;;;;;;;10.07;6.30;;;;;;;20.22;40.12;101817.47;3567499;40;20060;-79
2021/07/19 10:23:45;;;;;;;11.20;6.97;;;;;;;20.24;39.99;101818.19;3567900;40;20054;-79
2021/07/19 10:26:13;;;;;;;11.50;6.80;;;;;;;20.21;39.47;101808.28;3567316;40;20045;-79
2021/07/19 10:28:41;;;;;;;11.13;7.18;;;;;;;20.16;39.70;101805.13;3558649;40;20041;-78
2021/07/19 10:31:12;;;;;;;9.98;6.65;;;;;;;20.13;39.65;101810.13;3567627;40;20052;-79
2021/07/19 10:33:40;;;;;;;8.65;6.82;;;;;;;20.08;39.61;101818.13;3566287;40;20064;-78
2021/07/19 10:36:11;;;;;;;8.88;6.38;;;;;;;20.07;39.22;101808.94;3565555;40;20045;-79
2021/07/19 10:38:41;;;;;;;9.65;5.70;;;;;;;20.06;40.00;101811.88;3568294;40;20073;-79
2021/07/19 10:41:13;;;;;;;8.35;5.55;;;;;;;20.05;40.37;101812.91;3558627;40;20045;-79
2021/07/19 10:43:41;;;;;;;8.77;6.03;;;;;;;20.02;40.36;101807.69;3569663;40;20065;-79
2021/07/19 10:46:11;;;;;;;10.00;5.97;;;;;;;20.04;39.75;101812.03;3571162;40;20053;-79
2021/07/19 10:48:40;;;;;;;8.85;6.10;;;;;;;20.05;39.94;101804.56;3561245;40;20073;-79
2021/07/19 10:51:17;;;;;;;8.32;5.80;;;;;;;20.09;39.83;101803.22;3559794;40;20120;-76
2021/07/19 10:53:45;;;;;;;10.13;6.97;;;;;;;20.06;39.59;101809.97;3566452;40;20061;-76
2021/07/19 10:56:16;;;;;;;10.15;7.28;;;;;;;20.09;39.86;101811.53;3559373;40;20822;-79
2021/07/19 10:58:48;;;;;;;11.43;7.20;;;;;;;20.11;39.75;101798.31;3560228;40;20394;-79
2021/07/19 11:01:20;;;;;;;12.23;7.75;;;;;;;20.12;39.50;101797.28;3568630;40;20051;-79
2021/07/19 11:03:50;;;;;;;10.93;7.43;;;;;;;20.10;39.93;101794.69;3570358;40;20049;-78
2021/07/19 11:06:32;;;;;;;10.13;7.30;;;;;;;20.15;39.52;101794.19;3569499;40;20049;-79
2021/07/19 11:09:02;;;;;;;10.05;7.50;;;;;;;20.13;39.27;101790.69;3569342;40;20126;-79
2021/07/19 11:11:33;;;;;;;10.95;7.18;;;;;;;20.19;39.45;101784.44;3559920;40;20045;-79
2021/07/19 11:14:04;;;;;;;10.20;7.00;;;;;;;20.21;39.32;101787.97;3564824;40;20046;-79
2021/07/19 11:16:40;;;;;;;10.82;7.22;;;;;;;20.25;39.08;101786.59;3568636;40;20480;-79
2021/07/19 11:19:08;;;;;;;9.85;6.75;;;;;;;20.24;39.14;101788.50;3569644;40;20155;-79
2021/07/19 11:21:37;;;;;;;9.65;6.47;;;;;;;20.29;39.63;101782.41;3569101;40;20393;-77
2021/07/19 11:24:11;;;;;;;9.15;6.45;;;;;;;20.36;39.40;101786.22;3559977;40;20038;-75
2021/07/19 11:26:50;;;;;;;9.40;6.45;;;;;;;20.40;38.97;101767.28;3559299;40;20041;-76
2021/07/19 11:29:34;;;;;;;10.18;7.35;;;;;;;20.45;39.04;101773.19;3569127;40;20142;-76
2021/07/19 11:32:17;;;;;;;9.05;6.53;;;;;;;20.52;39.92;101768.66;3553809;40;20056;-76
2021/07/19 11:34:46;;;;;;;9.10;6.25;;;;;;;20.57;40.00;101778.22;3559761;40;20052;-76
2021/07/19 11:37:15;;;;;;;9.38;6.68;;;;;;;20.68;40.13;101775.06;3568239;40;20053;-77
2021/07/19 11:39:51;;;;;;;9.43;6.53;;;;;;;20.80;39.93;101777.47;3568975;40;20131;-77